createdAt,value
2019-02-10T00:00:00.010Z,6.65
2019-02-10T00:02:30.377Z,4.08
2019-02-10T00:05:00.691Z,4.72
2019-02-10T00:07:31.041Z,3.27
2019-02-10T00:10:01.361Z,4.67
2019-02-10T00:12:31.721Z,5.15
2019-02-10T00:15:02.147Z,5.47
2019-02-10T00:17:32.571Z,2.58
2019-02-10T00:20:02.880Z,3.75
2019-02-10T00:22:34.420Z,3.62
2019-02-10T00:25:05.985Z,5.37
2019-02-10T00:27:36.306Z,4.15
2019-02-10T00:30:06.843Z,5.05
2019-02-10T00:32:37.245Z,3.40
2019-02-10T00:35:07.504Z,4.85
2019-02-10T00:37:37.870Z,4.80
2019-02-10T00:40:08.314Z,3.55
2019-02-10T00:42:38.675Z,3.83
2019-02-10T00:45:09.086Z,3.60
2019-02-10T00:47:39.459Z,6.78
2019-02-10T00:50:09.820Z,6.72
2019-02-10T00:52:40.196Z,6.92
2019-02-10T00:55:10.697Z,7.70
2019-02-10T00:57:41.020Z,5.72
2019-02-10T01:00:11.604Z,4.75
2019-02-10T01:02:41.965Z,2.33
2019-02-10T01:05:12.277Z,5.75
2019-02-10T01:07:45.399Z,8.43
2019-02-10T01:10:16.811Z,3.17
2019-02-10T01:12:47.348Z,4.75
2019-02-10T01:15:17.626Z,3.37
2019-02-10T01:17:47.989Z,4.03
2019-02-10T01:20:18.368Z,8.05
2019-02-10T01:22:48.706Z,5.45
2019-02-10T01:25:19.026Z,3.98
2019-02-10T01:27:49.425Z,7.70
2019-02-10T01:30:19.884Z,5.50
2019-02-10T01:32:50.217Z,7.92
2019-02-10T01:35:20.524Z,4.20
2019-02-10T01:37:50.917Z,3.20
2019-02-10T01:40:21.180Z,8.58
2019-02-10T01:42:51.604Z,4.85
2019-02-10T01:45:22.962Z,3.65
2019-02-10T01:47:53.383Z,4.22
2019-02-10T01:50:23.811Z,6.30
2019-02-10T01:52:54.213Z,4.45
2019-02-10T01:55:24.681Z,4.87
2019-02-10T01:57:55.131Z,5.72
2019-02-10T02:00:25.476Z,4.30
2019-02-10T02:02:55.841Z,4.70
2019-02-10T02:05:26.179Z,8.55
2019-02-10T02:07:56.552Z,2.87
2019-02-10T02:10:26.927Z,3.72
2019-02-10T02:12:57.375Z,4.58
2019-02-10T02:15:27.811Z,3.30
2019-02-10T02:17:58.178Z,4.85
2019-02-10T02:20:28.657Z,4.17
2019-02-10T02:22:59.006Z,7.20
2019-02-10T02:25:30.355Z,9.50
2019-02-10T02:28:00.887Z,3.52
2019-02-10T02:30:31.308Z,6.70
2019-02-10T02:33:01.612Z,4.92
2019-02-10T02:35:31.873Z,6.22
2019-02-10T02:38:02.229Z,7.72
2019-02-10T02:40:32.517Z,5.33
2019-02-10T02:43:02.984Z,2.15
2019-02-10T02:45:33.359Z,6.40
2019-02-10T02:48:03.730Z,5.70
2019-02-10T02:50:34.189Z,3.80
2019-02-10T02:53:06.897Z,4.60
2019-02-10T02:55:37.201Z,3.85
2019-02-10T02:58:07.557Z,3.70
2019-02-10T03:00:37.969Z,2.00
2019-02-10T03:03:08.298Z,4.70
2019-02-10T03:05:38.677Z,3.83
2019-02-10T03:08:09.093Z,5.35
2019-02-10T03:10:39.531Z,5.85
2019-02-10T03:13:09.860Z,4.20
2019-02-10T03:15:40.209Z,3.35
2019-02-10T03:18:10.781Z,5.85
2019-02-10T03:20:41.086Z,7.90
2019-02-10T03:23:11.515Z,2.83
2019-02-10T03:25:41.835Z,3.12
2019-02-10T03:28:12.271Z,5.25
2019-02-10T03:30:42.575Z,2.12
2019-02-10T03:33:13.102Z,7.33
2019-02-10T03:35:43.401Z,3.25
2019-02-10T03:38:13.851Z,3.17
2019-02-10T03:40:46.045Z,3.55
2019-02-10T03:43:16.599Z,5.20
2019-02-10T03:45:47.039Z,3.58
2019-02-10T03:48:17.342Z,6.35
2019-02-10T03:50:47.633Z,5.97
2019-02-10T03:53:18.166Z,4.78
2019-02-10T03:55:48.575Z,4.75
2019-02-10T03:58:18.957Z,5.05
2019-02-10T04:00:49.330Z,4.83
2019-02-10T04:03:19.749Z,5.20
2019-02-10T04:05:50.117Z,4.72
2019-02-10T04:08:20.461Z,4.30
2019-02-10T04:10:51.826Z,3.75
2019-02-10T04:13:22.224Z,6.25
2019-02-10T04:15:52.584Z,5.62
2019-02-10T04:18:23.357Z,4.80
2019-02-10T04:20:53.797Z,6.15
2019-02-10T04:23:24.207Z,4.35
2019-02-10T04:25:54.578Z,7.20
2019-02-10T04:28:25.329Z,11.05
2019-02-10T04:30:55.669Z,6.67
2019-02-10T04:33:26.126Z,8.10
2019-02-10T04:35:56.454Z,2.37
2019-02-10T04:38:26.992Z,4.78
2019-02-10T04:40:58.330Z,7.78
2019-02-10T04:43:28.845Z,6.80
2019-02-10T04:45:59.262Z,3.77
2019-02-10T04:48:29.693Z,4.78
2019-02-10T04:51:00.020Z,4.10
2019-02-10T04:53:30.433Z,5.65
2019-02-10T04:56:11.662Z,5.10
2019-02-10T04:58:42.116Z,6.05
2019-02-10T05:01:12.542Z,3.37
2019-02-10T05:03:44.385Z,4.50
2019-02-10T05:06:14.695Z,6.30
2019-02-10T05:08:45.115Z,3.83
2019-02-10T05:11:15.644Z,2.58
2019-02-10T05:13:46.157Z,5.15
2019-02-10T05:16:16.643Z,5.78
2019-02-10T05:18:48.486Z,4.67
2019-02-10T05:21:18.846Z,2.75
2019-02-10T05:23:49.191Z,3.47
2019-02-10T05:26:19.520Z,3.77
2019-02-10T05:28:49.958Z,10.18
2019-02-10T05:31:20.522Z,3.65
2019-02-10T05:33:51.016Z,6.20
2019-02-10T05:36:21.315Z,7.12
2019-02-10T05:38:51.952Z,10.95
2019-02-10T05:41:22.284Z,4.97
2019-02-10T05:43:52.629Z,5.65
2019-02-10T05:46:23.007Z,3.87
2019-02-10T05:48:53.466Z,6.87
2019-02-10T05:51:23.868Z,4.60
2019-02-10T05:53:54.258Z,6.75
2019-02-10T05:56:24.602Z,4.08
2019-02-10T05:58:55.058Z,8.15
2019-02-10T06:01:59.575Z,4.05
2019-02-10T06:04:30.596Z,5.65
2019-02-10T06:07:03.111Z,4.50
2019-02-10T06:09:33.463Z,6.12
2019-02-10T06:12:04.012Z,7.20
2019-02-10T06:14:34.347Z,6.70
2019-02-10T06:17:04.819Z,2.92
2019-02-10T06:19:35.331Z,6.22
2019-02-10T06:22:05.621Z,6.28
2019-02-10T06:24:35.967Z,5.42
2019-02-10T06:27:06.321Z,5.90
2019-02-10T06:29:36.979Z,5.58
2019-02-10T06:32:07.409Z,3.37
2019-02-10T06:34:38.966Z,6.65
2019-02-10T06:37:09.339Z,5.85
2019-02-10T06:39:39.766Z,7.70
2019-02-10T06:42:10.091Z,4.50
2019-02-10T06:44:40.790Z,7.30
2019-02-10T06:47:11.185Z,4.35
2019-02-10T06:49:41.592Z,3.33
2019-02-10T06:52:11.918Z,8.10
2019-02-10T06:54:53.200Z,4.15
2019-02-10T06:57:24.823Z,11.35
2019-02-10T07:00:16.860Z,6.92
2019-02-10T07:03:27.192Z,5.55
2019-02-10T07:05:57.516Z,6.50
2019-02-10T07:08:30.552Z,6.80
2019-02-10T07:10:59.781Z,5.92
2019-02-10T07:13:38.996Z,6.10
2019-02-10T07:16:51.507Z,4.45
2019-02-10T07:20:11.283Z,3.87
2019-02-10T07:23:25.652Z,4.40
2019-02-10T07:26:03.224Z,5.83
2019-02-10T07:29:01.601Z,5.62
2019-02-10T07:31:37.728Z,6.33
2019-02-10T07:34:48.490Z,6.12
2019-02-10T07:38:06.097Z,5.62
2019-02-10T07:41:16.779Z,6.50
2019-02-10T07:44:09.631Z,3.20
2019-02-10T07:47:16.953Z,4.85
2019-02-10T07:50:12.069Z,7.03
2019-02-10T07:53:20.606Z,7.15
2019-02-10T07:56:31.464Z,7.55
2019-02-10T07:59:38.404Z,3.85
2019-02-10T08:03:04.729Z,8.45
2019-02-10T08:06:11.329Z,6.58
2019-02-10T08:09:25.854Z,7.90
2019-02-10T08:12:35.806Z,6.90
2019-02-10T08:15:21.811Z,4.80
2019-02-10T08:18:09.092Z,3.58
2019-02-10T08:21:14.461Z,5.03
2019-02-10T08:23:54.738Z,6.25
2019-02-10T08:26:50.430Z,5.05
2019-02-10T08:29:39.170Z,4.90
2019-02-10T08:32:31.342Z,6.08
2019-02-10T08:35:27.379Z,3.55
2019-02-10T08:38:12.607Z,2.80
2019-02-10T08:41:12.285Z,4.00
2019-02-10T08:44:26.092Z,4.40
2019-02-10T08:47:05.764Z,6.17
2019-02-10T08:50:21.250Z,5.90
2019-02-10T08:53:16.784Z,6.03
2019-02-10T08:55:47.612Z,2.30
2019-02-10T08:58:17.955Z,6.25
2019-02-10T09:00:48.281Z,5.90
2019-02-10T09:03:19.781Z,3.58
2019-02-10T09:05:50.787Z,2.80
2019-02-10T09:08:21.189Z,4.65
2019-02-10T09:10:53.126Z,4.20
2019-02-10T09:13:23.485Z,4.62
2019-02-10T09:15:53.869Z,3.72
2019-02-10T09:18:24.233Z,7.90
2019-02-10T09:20:54.565Z,4.42
2019-02-10T09:23:24.909Z,9.85
2019-02-10T09:25:55.211Z,9.78
2019-02-10T09:28:25.631Z,4.25
2019-02-10T09:30:56.088Z,3.20
2019-02-10T09:33:26.448Z,2.83
2019-02-10T09:35:56.722Z,6.55
2019-02-10T09:38:27.076Z,4.58
2019-02-10T09:40:57.436Z,7.92
2019-02-10T09:43:27.758Z,5.65
2019-02-10T09:45:58.095Z,3.90
2019-02-10T09:48:28.460Z,5.62
2019-02-10T09:50:59.302Z,2.80
2019-02-10T09:53:29.677Z,5.92
2019-02-10T09:55:59.989Z,5.60
2019-02-10T09:58:30.380Z,4.42
2019-02-10T10:01:00.677Z,6.90
2019-02-10T10:03:31.097Z,4.28
2019-02-10T10:06:01.403Z,5.00
2019-02-10T10:08:31.722Z,5.03
2019-02-10T10:11:02.028Z,6.30
2019-02-10T10:13:32.375Z,5.15
2019-02-10T10:16:02.692Z,3.87
2019-02-10T10:18:33.048Z,4.75
2019-02-10T10:21:03.415Z,2.50
2019-02-10T10:23:33.749Z,6.00
2019-02-10T10:26:04.065Z,3.67
2019-02-10T10:28:34.585Z,5.62
2019-02-10T10:31:04.924Z,5.28
2019-02-10T10:33:35.282Z,5.05
2019-02-10T10:36:05.649Z,5.35
2019-02-10T10:38:36.026Z,4.17
2019-02-10T10:41:06.451Z,4.40
2019-02-10T10:43:36.781Z,6.10
2019-02-10T10:46:07.310Z,3.40
2019-02-10T10:48:37.648Z,5.92
2019-02-10T10:51:08.020Z,5.87
2019-02-10T10:53:38.495Z,4.70
2019-02-10T10:56:08.922Z,4.62
2019-02-10T10:58:39.371Z,5.40
2019-02-10T11:01:10.040Z,5.53
2019-02-10T11:03:40.527Z,3.45
2019-02-10T11:06:10.948Z,5.47
2019-02-10T11:08:41.405Z,5.80
2019-02-10T11:11:11.864Z,3.20
2019-02-10T11:13:42.261Z,3.12
2019-02-10T11:16:12.627Z,4.87
2019-02-10T11:18:42.961Z,6.50
2019-02-10T11:21:13.667Z,8.15
2019-02-10T11:23:44.222Z,5.45
2019-02-10T11:26:14.559Z,8.20
2019-02-10T11:28:45.044Z,5.42
2019-02-10T11:31:15.675Z,5.15
2019-02-10T11:33:46.084Z,3.40
2019-02-10T11:36:16.452Z,6.58
2019-02-10T11:38:46.899Z,5.33
2019-02-10T11:41:17.196Z,2.75
2019-02-10T11:43:47.575Z,6.30
2019-02-10T11:46:17.862Z,6.15
2019-02-10T11:48:48.248Z,5.55
2019-02-10T11:51:18.585Z,5.03
2019-02-10T11:53:50.527Z,4.12
2019-02-10T11:56:20.875Z,5.47
2019-02-10T11:58:51.265Z,3.98
2019-02-10T12:01:21.654Z,4.30
2019-02-10T12:03:52.113Z,3.92
2019-02-10T12:06:22.531Z,7.00
2019-02-10T12:08:52.883Z,5.40
2019-02-10T12:11:23.261Z,5.40
2019-02-10T12:13:53.630Z,4.58
2019-02-10T12:16:23.986Z,5.28
2019-02-10T12:18:54.388Z,5.33
2019-02-10T12:21:27.897Z,7.50
2019-02-10T12:23:58.316Z,7.65
2019-02-10T12:26:30.691Z,8.58
2019-02-10T12:29:01.107Z,7.40
2019-02-10T12:31:31.427Z,7.55
2019-02-10T12:34:01.827Z,6.42
2019-02-10T12:36:32.157Z,4.00
2019-02-10T12:39:02.529Z,5.12
2019-02-10T12:41:33.928Z,5.22
2019-02-10T12:44:04.308Z,5.03
2019-02-10T12:46:34.713Z,4.15
2019-02-10T12:49:05.120Z,5.37
2019-02-10T12:51:35.468Z,4.75
2019-02-10T12:54:07.299Z,5.53
2019-02-10T12:56:37.673Z,3.17
2019-02-10T12:59:08.119Z,4.37
2019-02-10T13:01:38.621Z,5.70
2019-02-10T13:04:09.153Z,3.72
2019-02-10T13:06:39.485Z,5.80
2019-02-10T13:09:11.788Z,6.12
2019-02-10T13:11:42.306Z,3.08
2019-02-10T13:14:12.699Z,2.67
2019-02-10T13:16:43.023Z,5.12
2019-02-10T13:19:13.405Z,3.37
2019-02-10T13:21:43.711Z,7.33
2019-02-10T13:24:14.050Z,4.67
2019-02-10T13:26:44.483Z,5.33
2019-02-10T13:29:14.830Z,3.15
2019-02-10T13:31:45.152Z,6.20
2019-02-10T13:34:15.519Z,4.08
2019-02-10T13:36:45.808Z,4.80
2019-02-10T13:39:16.820Z,4.03
2019-02-10T13:41:45.495Z,4.00
2019-02-10T13:44:15.816Z,3.22
2019-02-10T13:46:46.130Z,3.85
2019-02-10T13:49:16.548Z,7.10
2019-02-10T13:51:46.905Z,3.55
2019-02-10T13:54:17.361Z,5.30
2019-02-10T13:56:47.688Z,5.08
2019-02-10T13:59:18.026Z,4.58
2019-02-10T14:01:48.425Z,4.87
2019-02-10T14:04:18.835Z,6.53
2019-02-10T14:06:49.185Z,4.55
2019-02-10T14:09:19.532Z,5.10
2019-02-10T14:11:49.976Z,3.92
2019-02-10T14:14:22.155Z,6.05
2019-02-10T14:16:52.479Z,5.50
2019-02-10T14:19:22.860Z,7.47
2019-02-10T14:21:53.235Z,3.60
2019-02-10T14:24:23.658Z,4.90
2019-02-10T14:26:54.023Z,4.58
2019-02-10T14:29:24.334Z,5.87
2019-02-10T14:31:54.754Z,5.58
2019-02-10T14:34:25.089Z,4.47
2019-02-10T14:36:55.440Z,5.05
2019-02-10T14:39:25.734Z,6.12
2019-02-10T14:41:56.109Z,7.33
2019-02-10T14:44:26.452Z,6.33
2019-02-10T14:46:56.872Z,6.67
2019-02-10T14:49:27.243Z,4.83
2019-02-10T14:51:57.615Z,5.83
2019-02-10T14:54:28.066Z,4.42
2019-02-10T14:56:58.401Z,5.20
2019-02-10T14:59:29.056Z,3.90
2019-02-10T15:01:59.432Z,4.70
2019-02-10T15:04:29.950Z,5.45
2019-02-10T15:07:00.380Z,4.37
2019-02-10T15:09:30.832Z,4.50
2019-02-10T15:12:01.121Z,5.45
2019-02-10T15:14:31.617Z,4.58
2019-02-10T15:17:01.964Z,6.75
2019-02-10T15:19:32.555Z,3.52
2019-02-10T15:22:02.937Z,4.75
2019-02-10T15:24:33.303Z,4.83
2019-02-10T15:27:03.665Z,6.22
2019-02-10T15:29:34.096Z,3.72
2019-02-10T15:32:04.540Z,4.30
2019-02-10T15:34:34.947Z,5.85
2019-02-10T15:37:05.392Z,5.03
2019-02-10T15:39:35.841Z,7.78
2019-02-10T15:42:09.381Z,6.03
2019-02-10T15:44:38.297Z,3.55
2019-02-10T15:47:08.636Z,2.70
2019-02-10T15:49:40.064Z,4.25
2019-02-10T15:52:10.513Z,2.40
2019-02-10T15:54:52.439Z,2.08
2019-02-10T15:57:22.876Z,1.52
2019-02-10T15:59:53.247Z,2.87
2019-02-10T16:02:23.621Z,2.17
2019-02-10T16:04:54.021Z,3.05
2019-02-10T16:07:25.381Z,2.52
2019-02-10T16:10:07.083Z,2.75
2019-02-10T16:12:37.425Z,1.95
2019-02-10T16:15:08.021Z,2.85
2019-02-10T16:17:38.325Z,3.92
2019-02-10T16:20:10.244Z,2.75
2019-02-10T16:22:41.625Z,1.95
2019-02-10T16:25:12.015Z,2.15
2019-02-10T16:27:42.454Z,2.05
2019-02-10T16:30:13.727Z,2.70
2019-02-10T16:32:49.589Z,1.65
2019-02-10T16:35:16.151Z,1.87
2019-02-10T16:37:46.652Z,1.52
2019-02-10T16:40:18.324Z,1.42
2019-02-10T16:42:48.694Z,2.55
2019-02-10T16:45:19.225Z,1.52
2019-02-10T16:47:49.560Z,1.87
2019-02-10T16:50:19.961Z,5.87
2019-02-10T16:52:50.379Z,2.75
2019-02-10T16:55:21.093Z,1.60
2019-02-10T16:57:51.551Z,2.10
2019-02-10T17:00:22.060Z,1.85
2019-02-10T17:02:52.464Z,3.12
2019-02-10T17:05:23.117Z,2.30
2019-02-10T17:07:53.486Z,1.75
2019-02-10T17:10:23.921Z,2.12
2019-02-10T17:12:54.291Z,2.22
2019-02-10T17:15:24.670Z,2.67
2019-02-10T17:17:55.132Z,1.92
2019-02-10T17:20:25.490Z,2.22
2019-02-10T17:22:55.815Z,1.80
2019-02-10T17:25:26.445Z,2.58
2019-02-10T17:27:57.364Z,3.15
2019-02-10T17:30:27.816Z,1.98
2019-02-10T17:32:58.332Z,1.55
2019-02-10T17:35:28.750Z,2.67
2019-02-10T17:37:59.108Z,2.45
2019-02-10T17:40:38.426Z,2.05
2019-02-10T17:43:08.863Z,3.45
2019-02-10T17:45:39.398Z,4.00
2019-02-10T17:48:09.819Z,2.52
2019-02-10T17:50:40.235Z,3.90
2019-02-10T17:53:10.757Z,2.33
2019-02-10T17:55:41.121Z,3.55
2019-02-10T17:58:11.520Z,2.50
2019-02-10T18:00:45.652Z,3.58
2019-02-10T18:03:16.086Z,5.35
2019-02-10T18:05:46.524Z,2.72
2019-02-10T18:08:19.833Z,1.72
2019-02-10T18:10:50.306Z,1.90
2019-02-10T18:13:20.742Z,1.45
2019-02-10T18:16:20.328Z,1.62
2019-02-10T18:19:08.306Z,2.12
2019-02-10T18:22:00.022Z,1.90
2019-02-10T18:24:39.867Z,2.00
2019-02-10T18:27:27.943Z,1.65
2019-02-10T18:30:15.858Z,1.40
2019-02-10T18:33:02.298Z,1.90
2019-02-10T18:35:57.666Z,2.00
2019-02-10T18:38:55.808Z,1.52
2019-02-10T18:41:39.310Z,1.42
2019-02-10T18:44:34.113Z,1.40
2019-02-10T18:47:23.395Z,1.80
2019-02-10T18:50:08.146Z,2.45
2019-02-10T18:53:06.422Z,1.30
2019-02-10T18:55:54.640Z,1.30
2019-02-10T18:58:54.475Z,3.15
2019-02-10T19:01:59.087Z,2.22
2019-02-10T19:04:43.239Z,2.00
2019-02-10T19:07:45.045Z,1.10
2019-02-10T19:10:52.412Z,1.17
2019-02-10T19:13:40.410Z,1.90
2019-02-10T19:16:17.012Z,1.40
2019-02-10T19:18:59.858Z,1.65
2019-02-10T19:21:48.122Z,1.32
2019-02-10T19:24:27.325Z,1.30
2019-02-10T19:27:19.671Z,1.45
2019-02-10T19:30:17.919Z,1.40
2019-02-10T19:33:14.410Z,1.60
2019-02-10T19:36:01.412Z,1.60
2019-02-10T19:38:49.325Z,1.45
2019-02-10T19:41:55.488Z,1.22
2019-02-10T19:44:27.524Z,1.57
2019-02-10T19:47:03.406Z,4.85
2019-02-10T19:49:51.312Z,1.98
2019-02-10T19:52:29.989Z,2.12
2019-02-10T19:55:22.024Z,1.50
2019-02-10T19:58:20.189Z,1.30
2019-02-10T20:01:15.650Z,1.42
2019-02-10T20:04:17.346Z,1.95
2019-02-10T20:07:12.710Z,1.25
2019-02-10T20:10:02.002Z,1.35
2019-02-10T20:12:46.386Z,1.77
2019-02-10T20:15:27.467Z,2.20
2019-02-10T20:18:25.924Z,1.82
2019-02-10T20:21:30.729Z,3.67
2019-02-10T20:24:18.154Z,3.42
2019-02-10T20:27:10.725Z,1.25
2019-02-10T20:29:55.895Z,1.40
2019-02-10T20:32:34.152Z,1.30
2019-02-10T20:35:48.896Z,1.20
2019-02-10T20:38:36.837Z,1.10
2019-02-10T20:41:32.156Z,1.10
2019-02-10T20:44:31.592Z,1.27
2019-02-10T20:47:09.522Z,1.10
2019-02-10T20:49:57.588Z,1.40
2019-02-10T20:52:45.940Z,1.52
2019-02-10T20:55:28.870Z,1.80
2019-02-10T20:58:06.337Z,1.05
2019-02-10T21:00:55.841Z,2.35
2019-02-10T21:03:48.329Z,0.98
2019-02-10T21:06:46.757Z,1.15
2019-02-10T21:09:29.939Z,1.55
2019-02-10T21:12:28.852Z,1.05
2019-02-10T21:15:23.934Z,1.40
2019-02-10T21:18:13.993Z,1.98
2019-02-10T21:21:05.373Z,1.27
2019-02-10T21:23:47.512Z,0.90
2019-02-10T21:26:43.093Z,1.10
2019-02-10T21:29:47.065Z,1.25
2019-02-10T21:32:36.322Z,1.70
2019-02-10T21:35:28.641Z,1.10
2019-02-10T21:38:16.962Z,1.00
2019-02-10T21:41:24.651Z,1.02
2019-02-10T21:43:59.776Z,0.98
2019-02-10T21:47:01.105Z,1.12
2019-02-10T21:49:31.442Z,0.90
2019-02-10T21:52:01.775Z,1.02
2019-02-10T21:54:32.201Z,1.10
2019-02-10T21:57:02.561Z,1.05
2019-02-10T21:59:32.890Z,1.00
2019-02-10T22:02:03.208Z,0.98
2019-02-10T22:04:33.527Z,0.88
2019-02-10T22:07:03.842Z,0.88
2019-02-10T22:09:34.147Z,0.70
2019-02-10T22:12:04.503Z,0.90
2019-02-10T22:14:34.833Z,1.32
2019-02-10T22:17:05.168Z,0.90
2019-02-10T22:19:37.594Z,0.90
2019-02-10T22:22:09.008Z,0.90
2019-02-10T22:24:39.295Z,1.55
2019-02-10T22:27:09.650Z,0.80
2019-02-10T22:29:40.052Z,0.90
2019-02-10T22:32:10.391Z,1.00
2019-02-10T22:34:40.907Z,0.82
2019-02-10T22:37:12.095Z,0.70
2019-02-10T22:39:42.480Z,0.80
2019-02-10T22:42:12.827Z,1.00
2019-02-10T22:44:43.158Z,0.80
2019-02-10T22:47:13.545Z,0.90
2019-02-10T22:49:43.859Z,1.30
2019-02-10T22:52:14.233Z,0.80
2019-02-10T22:54:44.522Z,1.10
2019-02-10T22:57:14.872Z,0.70
2019-02-10T22:59:45.169Z,1.10
2019-02-10T23:02:15.592Z,1.02
2019-02-10T23:04:45.901Z,0.80
2019-02-10T23:07:16.621Z,1.00
2019-02-10T23:09:46.924Z,0.95
2019-02-10T23:12:17.242Z,0.90
2019-02-10T23:14:47.558Z,0.80
2019-02-10T23:17:17.951Z,1.07
2019-02-10T23:19:48.259Z,0.90
2019-02-10T23:22:18.621Z,0.90
2019-02-10T23:24:49.953Z,0.82
2019-02-10T23:27:20.279Z,0.75
2019-02-10T23:29:50.573Z,0.80
2019-02-10T23:32:20.955Z,1.00
2019-02-10T23:34:51.249Z,0.85
2019-02-10T23:37:21.595Z,0.80
2019-02-10T23:39:52.871Z,0.80
2019-02-10T23:42:23.237Z,0.95
2019-02-10T23:44:53.561Z,0.90
2019-02-10T23:47:23.942Z,0.90
2019-02-10T23:49:54.348Z,1.00
2019-02-10T23:52:24.681Z,0.90
2019-02-10T23:54:55.005Z,1.00
2019-02-10T23:57:25.376Z,1.00
2019-02-10T23:59:56.039Z,1.00
